Time;durP1;ratioP1;P1;durP2;ratioP2;P2;SDS_P1;SDS_P2;PMS_P1;PMS_P2;Temp;Humidity;BMP_temperature;BMP_pressure;BME280_temperature;BME280_humidity;BME280_pressure;Samples;Min_cycle;Max_cycle;Signal;HPM_P1;HPM_P2
2021/11/14 00:02:51;;;;;;;19.67;6.72;;;;;;;;;;10333800;28;20034;-75
2021/11/14 00:07:51;;;;;;;11.07;4.63;;;;;;;;;;10349687;28;20062;-73
2021/11/14 00:12:51;;;;;;;10.45;6.25;;;;;;;;;;10337773;28;20052;-76
2021/11/14 00:17:51;;;;;;;19.75;7.63;;;;;;;;;;10337026;28;20045;-75
2021/11/14 00:22:52;;;;;;;7.60;5.97;;;;;;;;;;10334030;28;20054;-75
2021/11/14 00:27:52;;;;;;;13.30;6.30;;;;;;;;;;10349095;28;20339;-75
2021/11/14 00:32:52;;;;;;;6.75;6.05;;;;;;;;;;10334607;28;20019;-75
2021/11/14 00:37:52;;;;;;;17.60;6.30;;;;;;;;;;10334546;28;20109;-75
2021/11/14 00:42:56;;;;;;;11.07;6.00;;;;;;;;;;10334514;28;20047;-75
2021/11/14 00:47:56;;;;;;;19.73;5.85;;;;;;;;;;10349258;28;20042;-75
2021/11/14 00:52:58;;;;;;;6.53;5.68;;;;;;;;;;10349005;28;20022;-75
2021/11/14 00:57:59;;;;;;;16.45;7.85;;;;;;;;;;10334443;28;20118;-74
2021/11/14 01:02:59;;;;;;;15.40;6.97;;;;;;;;;;10334488;28;20416;-75
2021/11/14 01:08:00;;;;;;;8.05;6.43;;;;;;;;;;10332833;28;20022;-75
2021/11/14 01:13:00;;;;;;;9.77;6.60;;;;;;;;;;10332035;28;20436;-75
2021/11/14 01:18:01;;;;;;;19.58;7.15;;;;;;;;;;10334088;28;20041;-75
2021/11/14 01:23:02;;;;;;;8.88;6.88;;;;;;;;;;10339900;28;20054;-75
2021/11/14 01:28:02;;;;;;;10.38;6.03;;;;;;;;;;10341152;28;20275;-75
2021/11/14 01:33:03;;;;;;;8.85;6.30;;;;;;;;;;10339971;28;20061;-75
2021/11/14 01:38:05;;;;;;;14.30;6.05;;;;;;;;;;10341878;28;20125;-75
2021/11/14 01:43:06;;;;;;;16.98;6.38;;;;;;;;;;10355114;28;20116;-75
2021/11/14 01:48:06;;;;;;;31.42;8.68;;;;;;;;;;10339757;28;20101;-75
2021/11/14 01:53:06;;;;;;;16.70;6.95;;;;;;;;;;10354871;28;20064;-75
2021/11/14 01:58:06;;;;;;;11.10;7.93;;;;;;;;;;10338758;28;20108;-74
2021/11/14 02:03:07;;;;;;;14.48;8.55;;;;;;;;;;10338517;28;20050;-75
2021/11/14 02:08:07;;;;;;;16.17;8.77;;;;;;;;;;10338321;28;20038;-75
2021/11/14 02:13:07;;;;;;;16.35;9.05;;;;;;;;;;10353987;28;20523;-75
2021/11/14 02:18:08;;;;;;;11.32;7.40;;;;;;;;;;10339204;28;20482;-75
2021/11/14 02:23:11;;;;;;;12.57;8.02;;;;;;;;;;10338781;28;20375;-75
2021/11/14 02:28:11;;;;;;;8.85;7.97;;;;;;;;;;10342506;28;20034;-75
2021/11/14 02:33:12;;;;;;;12.20;7.57;;;;;;;;;;10347103;28;20126;-74
2021/11/14 02:38:12;;;;;;;12.98;8.02;;;;;;;;;;10337832;28;20314;-75
2021/11/14 02:43:12;;;;;;;15.25;9.18;;;;;;;;;;10337736;28;20031;-75
2021/11/14 02:48:12;;;;;;;16.60;9.23;;;;;;;;;;10337625;28;20033;-75
2021/11/14 02:53:13;;;;;;;16.33;8.93;;;;;;;;;;10337245;28;20037;-75
2021/11/14 02:58:13;;;;;;;15.52;10.02;;;;;;;;;;10337611;28;20026;-75
2021/11/14 03:03:13;;;;;;;12.63;9.60;;;;;;;;;;10336926;28;20034;-75
2021/11/14 03:08:14;;;;;;;19.42;11.73;;;;;;;;;;10336034;28;20429;-75
2021/11/14 03:13:14;;;;;;;16.38;13.98;;;;;;;;;;10336437;28;20037;-75
2021/11/14 03:18:15;;;;;;;18.73;13.05;;;;;;;;;;10351871;28;20081;-75
2021/11/14 03:23:15;;;;;;;15.98;13.00;;;;;;;;;;10336963;28;20133;-74
2021/11/14 03:28:16;;;;;;;15.90;11.88;;;;;;;;;;10337018;28;20089;-75
2021/11/14 03:33:16;;;;;;;17.85;11.45;;;;;;;;;;10335120;28;20041;-75
2021/11/14 03:38:17;;;;;;;21.20;12.38;;;;;;;;;;10334743;28;20080;-74
2021/11/14 03:43:18;;;;;;;17.08;12.25;;;;;;;;;;10335287;28;20034;-75
2021/11/14 03:48:18;;;;;;;22.05;15.70;;;;;;;;;;10350367;28;20173;-75
2021/11/14 03:53:20;;;;;;;24.75;16.20;;;;;;;;;;10334994;28;20431;-75
2021/11/14 03:58:20;;;;;;;24.73;17.48;;;;;;;;;;10334767;28;20613;-75
2021/11/14 04:03:20;;;;;;;19.17;15.93;;;;;;;;;;10334196;28;20110;-75
2021/11/14 04:08:21;;;;;;;22.10;16.10;;;;;;;;;;10334658;28;20045;-75
2021/11/14 04:13:22;;;;;;;34.60;15.82;;;;;;;;;;10350091;28;20030;-75
2021/11/14 04:18:22;;;;;;;25.33;15.60;;;;;;;;;;10334937;28;20034;-75
2021/11/14 04:23:22;;;;;;;24.08;17.35;;;;;;;;;;10334995;28;20307;-75
2021/11/14 04:28:22;;;;;;;38.97;17.77;;;;;;;;;;10334788;28;20244;-75
2021/11/14 04:33:23;;;;;;;27.80;16.77;;;;;;;;;;10348748;28;20031;-75
2021/11/14 04:38:24;;;;;;;25.17;17.33;;;;;;;;;;10333398;28;20037;-75
2021/11/14 04:43:24;;;;;;;20.23;16.83;;;;;;;;;;10333825;28;20065;-75
2021/11/14 04:48:24;;;;;;;25.35;15.48;;;;;;;;;;10350541;28;20073;-74
2021/11/14 04:53:25;;;;;;;26.63;17.27;;;;;;;;;;10337022;28;20383;-75
2021/11/14 04:58:25;;;;;;;24.88;16.80;;;;;;;;;;10356741;28;20038;-75
2021/11/14 05:03:26;;;;;;;24.43;16.53;;;;;;;;;;10341616;28;20035;-75
2021/11/14 05:08:26;;;;;;;21.52;17.40;;;;;;;;;;10340075;28;20275;-75
2021/11/14 05:13:26;;;;;;;25.52;16.40;;;;;;;;;;10356283;28;20030;-75
2021/11/14 05:18:27;;;;;;;28.45;16.48;;;;;;;;;;10341502;28;20031;-75
2021/11/14 05:23:27;;;;;;;24.40;17.13;;;;;;;;;;10355649;28;20050;-75
2021/11/14 05:28:27;;;;;;;25.10;17.17;;;;;;;;;;10339334;28;20260;-75
2021/11/14 05:33:27;;;;;;;26.55;19.00;;;;;;;;;;10340290;28;20036;-75
2021/11/14 05:38:27;;;;;;;29.02;17.45;;;;;;;;;;10355279;28;20035;-75
2021/11/14 05:43:28;;;;;;;28.95;17.23;;;;;;;;;;10340487;28;20030;-75
2021/11/14 05:48:28;;;;;;;21.92;17.80;;;;;;;;;;10340464;28;20030;-75
2021/11/14 05:53:28;;;;;;;26.58;16.90;;;;;;;;;;10354745;28;20026;-75
2021/11/14 05:58:54;;;;;;;27.13;18.08;;;;;;;;;;10339792;28;20038;-75
2021/11/14 06:04:07;;;;;;;24.05;15.52;;;;;;;;;;10351037;28;20118;-75
2021/11/14 06:09:08;;;;;;;23.60;17.33;;;;;;;;;;10337868;28;20022;-75
2021/11/14 06:14:08;;;;;;;21.33;16.38;;;;;;;;;;10338848;28;20100;-75
2021/11/14 06:19:08;;;;;;;35.28;18.02;;;;;;;;;;10338063;28;20395;-75
2021/11/14 06:24:09;;;;;;;35.35;17.25;;;;;;;;;;10337413;28;20137;-75
2021/11/14 06:29:09;;;;;;;33.22;16.52;;;;;;;;;;10353483;28;20030;-75
2021/11/14 06:34:09;;;;;;;19.52;15.98;;;;;;;;;;10338688;28;20062;-75
2021/11/14 06:39:09;;;;;;;25.15;18.10;;;;;;;;;;10337452;28;20468;-75
2021/11/14 06:44:10;;;;;;;23.57;17.70;;;;;;;;;;10352868;28;20376;-75
2021/11/14 06:49:10;;;;;;;20.23;17.15;;;;;;;;;;10336330;28;20773;-75
2021/11/14 06:54:10;;;;;;;27.75;16.98;;;;;;;;;;10336686;28;20480;-75
2021/11/14 06:59:10;;;;;;;30.15;19.23;;;;;;;;;;10337047;28;20480;-75
2021/11/14 07:04:11;;;;;;;43.45;22.45;;;;;;;;;;10336652;28;20026;-74
2021/11/14 07:09:11;;;;;;;30.58;21.58;;;;;;;;;;10352050;28;20022;-75
2021/11/14 07:14:11;;;;;;;37.50;23.58;;;;;;;;;;10336481;28;20109;-75
2021/11/14 07:19:11;;;;;;;33.55;20.20;;;;;;;;;;10335830;28;20042;-75
2021/11/14 07:24:12;;;;;;;34.83;21.35;;;;;;;;;;10335424;28;20066;-75
2021/11/14 07:29:12;;;;;;;38.75;22.52;;;;;;;;;;10335291;28;20041;-75
2021/11/14 07:34:12;;;;;;;37.53;23.77;;;;;;;;;;10335754;28;20038;-75
2021/11/14 07:39:13;;;;;;;44.30;21.77;;;;;;;;;;10350515;28;20058;-75
2021/11/14 07:44:13;;;;;;;45.50;25.17;;;;;;;;;;10334797;28;20299;-75
2021/11/14 07:49:15;;;;;;;45.95;28.83;;;;;;;;;;10333908;28;20023;-75
2021/11/14 07:54:15;;;;;;;38.63;24.33;;;;;;;;;;10334439;28;20033;-75
2021/11/14 07:59:16;;;;;;;37.20;26.02;;;;;;;;;;10335296;28;20030;-75
2021/11/14 08:04:17;;;;;;;37.45;26.17;;;;;;;;;;10335149;28;20030;-75
2021/11/14 08:09:17;;;;;;;47.83;27.40;;;;;;;;;;10334604;28;20030;-75
2021/11/14 08:14:17;;;;;;;39.95;26.83;;;;;;;;;;10334532;28;20109;-75
2021/11/14 08:19:17;;;;;;;37.92;23.95;;;;;;;;;;10334690;28;20038;-75
2021/11/14 08:24:18;;;;;;;29.73;22.02;;;;;;;;;;10334765;28;20100;-75
2021/11/14 08:29:18;;;;;;;47.55;26.10;;;;;;;;;;10331651;28;20037;-75
2021/11/14 08:34:18;;;;;;;49.83;26.77;;;;;;;;;;10334137;28;20034;-75
2021/11/14 08:39:18;;;;;;;45.08;25.38;;;;;;;;;;10333856;28;20034;-75
2021/11/14 08:44:19;;;;;;;38.60;25.70;;;;;;;;;;10333830;28;20460;-75
2021/11/14 08:49:19;;;;;;;39.13;25.83;;;;;;;;;;10333799;28;20034;-75
2021/11/14 08:54:19;;;;;;;39.78;25.23;;;;;;;;;;10348179;28;20259;-75
2021/11/14 08:59:19;;;;;;;37.10;25.33;;;;;;;;;;10333526;28;20034;-74
2021/11/14 09:04:20;;;;;;;42.65;27.40;;;;;;;;;;10333511;28;20339;-75
2021/11/14 09:09:20;;;;;;;40.08;24.67;;;;;;;;;;10335219;28;20030;-74
2021/11/14 09:14:21;;;;;;;42.50;28.70;;;;;;;;;;10349222;28;20022;-75
2021/11/14 09:19:21;;;;;;;53.92;30.30;;;;;;;;;;10335223;28;20292;-75
2021/11/14 09:24:22;;;;;;;44.30;27.63;;;;;;;;;;10339176;28;20058;-76
2021/11/14 09:29:22;;;;;;;47.97;27.88;;;;;;;;;;10338658;28;20373;-76
2021/11/14 09:34:22;;;;;;;41.70;27.30;;;;;;;;;;10334112;28;20034;-75
2021/11/14 09:39:22;;;;;;;58.92;31.40;;;;;;;;;;10334334;28;20456;-76
2021/11/14 09:44:23;;;;;;;40.70;28.15;;;;;;;;;;10340455;28;20046;-75
2021/11/14 09:49:23;;;;;;;46.30;26.15;;;;;;;;;;10339959;28;20027;-75
2021/11/14 09:54:24;;;;;;;42.80;27.83;;;;;;;;;;10338825;28;20041;-77
2021/11/14 09:59:25;;;;;;;41.00;27.35;;;;;;;;;;10355723;28;20117;-76
2021/11/14 10:04:26;;;;;;;40.42;26.15;;;;;;;;;;10337262;28;20192;-76
2021/11/14 10:09:29;;;;;;;36.67;23.25;;;;;;;;;;10338996;28;20034;-77
2021/11/14 10:14:30;;;;;;;35.05;23.40;;;;;;;;;;10354314;28;20476;-77
2021/11/14 10:19:30;;;;;;;34.00;24.70;;;;;;;;;;10337997;28;20035;-77
2021/11/14 10:24:30;;;;;;;29.38;21.40;;;;;;;;;;10339414;28;20062;-77
2021/11/14 10:29:30;;;;;;;35.80;22.77;;;;;;;;;;10338290;28;20081;-77
2021/11/14 10:34:31;;;;;;;36.93;23.80;;;;;;;;;;10338472;28;20112;-76
2021/11/14 10:39:36;;;;;;;29.65;21.17;;;;;;;;;;10336446;28;20777;-77
2021/11/14 10:44:44;;;;;;;26.63;20.43;;;;;;;;;;10337606;28;20442;-78
2021/11/14 10:49:51;;;;;;;29.52;22.65;;;;;;;;;;10337390;28;20022;-78
2021/11/14 10:54:52;;;;;;;33.78;24.48;;;;;;;;;;10351947;28;20041;-75
2021/11/14 10:59:52;;;;;;;37.33;22.05;;;;;;;;;;10337366;28;20098;-76
2021/11/14 11:04:54;;;;;;;33.70;19.50;;;;;;;;;;10336756;28;20034;-79
2021/11/14 11:09:55;;;;;;;29.80;18.90;;;;;;;;;;10351780;28;20027;-75
2021/11/14 11:15:00;;;;;;;26.38;18.45;;;;;;;;;;10352565;28;20337;-76
2021/11/14 11:20:07;;;;;;;33.22;21.58;;;;;;;;;;10351215;28;20109;-75
2021/11/14 11:25:08;;;;;;;27.40;19.63;;;;;;;;;;10336379;28;20061;-75
2021/11/14 11:30:08;;;;;;;24.75;19.15;;;;;;;;;;10335441;28;20034;-76
2021/11/14 11:35:09;;;;;;;31.83;20.30;;;;;;;;;;10335700;28;20030;-76
2021/11/14 11:40:10;;;;;;;35.53;20.10;;;;;;;;;;10336669;28;20038;-76
2021/11/14 11:45:10;;;;;;;33.58;21.60;;;;;;;;;;10336793;28;20026;-76
2021/11/14 11:50:11;;;;;;;26.98;17.00;;;;;;;;;;10334705;28;20034;-76
2021/11/14 11:55:18;;;;;;;31.67;18.60;;;;;;;;;;10335026;28;20092;-75
2021/11/14 12:00:19;;;;;;;29.40;16.98;;;;;;;;;;10335537;28;20033;-75
2021/11/14 12:05:20;;;;;;;24.55;13.95;;;;;;;;;;10334346;28;20496;-78
2021/11/14 12:10:27;;;;;;;25.15;17.20;;;;;;;;;;10334254;28;20356;-78
2021/11/14 12:15:28;;;;;;;24.45;17.98;;;;;;;;;;10350131;28;20085;-78
2021/11/14 12:20:34;;;;;;;23.55;15.98;;;;;;;;;;10334534;28;20035;-76
2021/11/14 12:25:37;;;;;;;17.20;14.98;;;;;;;;;;10334893;28;20447;-76
2021/11/14 12:30:39;;;;;;;23.60;14.98;;;;;;;;;;10336067;28;20029;-76
2021/11/14 12:35:43;;;;;;;25.40;14.73;;;;;;;;;;10333093;28;20452;-76
2021/11/14 12:40:45;;;;;;;24.10;16.35;;;;;;;;;;10333547;28;20140;-76
2021/11/14 12:45:49;;;;;;;28.08;15.75;;;;;;;;;;10333386;28;20113;-76
2021/11/14 12:51:00;;;;;;;28.50;14.23;;;;;;;;;;10348679;28;20038;-75
2021/11/14 12:56:09;;;;;;;23.48;14.13;;;;;;;;;;10333623;28;20021;-78
2021/11/14 13:01:10;;;;;;;20.45;11.88;;;;;;;;;;10334107;28;20030;-76
2021/11/14 13:06:24;;;;;;;26.92;14.50;;;;;;;;;;10333159;28;20464;-77
2021/11/14 13:11:25;;;;;;;18.02;12.80;;;;;;;;;;10332911;28;20030;-76
2021/11/14 13:16:25;;;;;;;17.70;13.38;;;;;;;;;;10338763;28;20031;-77
2021/11/14 13:21:28;;;;;;;21.15;13.63;;;;;;;;;;10340134;28;20077;-76
2021/11/14 13:26:32;;;;;;;19.98;13.23;;;;;;;;;;10341901;28;20669;-76
2021/11/14 13:31:32;;;;;;;16.75;12.80;;;;;;;;;;10341333;28;20353;-76
2021/11/14 13:36:34;;;;;;;20.80;15.70;;;;;;;;;;10340618;28;20034;-76
2021/11/14 13:41:34;;;;;;;20.25;13.32;;;;;;;;;;10340674;28;20022;-76
2021/11/14 13:46:34;;;;;;;29.38;15.27;;;;;;;;;;10342869;28;20041;-78
2021/11/14 13:51:35;;;;;;;21.17;13.15;;;;;;;;;;10341247;28;20034;-75
2021/11/14 13:56:42;;;;;;;24.13;14.93;;;;;;;;;;10344234;28;20039;-77
2021/11/14 14:01:42;;;;;;;;;;;;;;;;;;10343338;28;20499;-75
2021/11/14 14:06:42;;;;;;;33.08;13.70;;;;;;;;;;10339626;28;19914;-76
2021/11/14 14:11:42;;;;;;;24.15;16.73;;;;;;;;;;10353934;28;20092;-77
2021/11/14 14:16:43;;;;;;;19.15;12.05;;;;;;;;;;10353830;28;20034;-76
2021/11/14 14:21:43;;;;;;;23.70;15.82;;;;;;;;;;10338391;28;20185;-77
2021/11/14 14:26:43;;;;;;;22.23;15.07;;;;;;;;;;10337085;28;20541;-76
2021/11/14 14:31:45;;;;;;;24.05;16.10;;;;;;;;;;10339083;28;20419;-75
2021/11/14 14:36:45;;;;;;;25.50;16.67;;;;;;;;;;10338317;28;20039;-76
2021/11/14 14:41:46;;;;;;;19.92;14.38;;;;;;;;;;10352748;28;20034;-76
2021/11/14 14:46:47;;;;;;;24.45;15.93;;;;;;;;;;10337872;28;20447;-76
2021/11/14 14:51:58;;;;;;;20.83;14.68;;;;;;;;;;10353188;28;20077;-78
2021/11/14 14:56:59;;;;;;;18.52;13.85;;;;;;;;;;10339309;28;20030;-78
2021/11/14 15:02:00;;;;;;;21.83;15.25;;;;;;;;;;10352483;28;20022;-76
2021/11/14 15:07:02;;;;;;;18.88;14.70;;;;;;;;;;10336757;28;20030;-76
2021/11/14 15:12:08;;;;;;;21.30;13.70;;;;;;;;;;10350918;28;20022;-78
2021/11/14 15:17:15;;;;;;;29.48;13.80;;;;;;;;;;10336898;28;20026;-77
2021/11/14 15:22:15;;;;;;;;;;;;;;;;;;10336069;28;20046;-75
2021/11/14 15:27:19;;;;;;;20.05;15.32;;;;;;;;;;10336146;28;20275;-76
2021/11/14 15:32:19;;;;;;;20.83;15.43;;;;;;;;;;10336437;28;20392;-76
2021/11/14 15:37:19;;;;;;;24.40;16.70;;;;;;;;;;10335558;28;20113;-76
2021/11/14 15:42:21;;;;;;;16.05;13.75;;;;;;;;;;10334734;28;20029;-76
2021/11/14 15:47:21;;;;;;;18.75;15.38;;;;;;;;;;10335045;28;20061;-77
2021/11/14 15:52:22;;;;;;;24.35;15.43;;;;;;;;;;10336146;28;20052;-75
2021/11/14 15:57:22;;;;;;;22.65;15.93;;;;;;;;;;10334703;28;20194;-76
2021/11/14 16:02:22;;;;;;;17.98;11.80;;;;;;;;;;10334440;28;20094;-76
2021/11/14 16:07:22;;;;;;;22.98;14.40;;;;;;;;;;10337031;28;20091;-76
2021/11/14 16:12:22;;;;;;;28.08;18.88;;;;;;;;;;10336471;28;20037;-75
2021/11/14 16:17:23;;;;;;;29.15;17.85;;;;;;;;;;10335008;28;20110;-76
2021/11/14 16:22:23;;;;;;;27.43;16.57;;;;;;;;;;10334551;28;20069;-76
2021/11/14 16:27:23;;;;;;;26.40;18.05;;;;;;;;;;10334219;28;20348;-76
2021/11/14 16:32:23;;;;;;;31.35;20.48;;;;;;;;;;10333460;28;20088;-75
2021/11/14 16:37:24;;;;;;;27.88;17.92;;;;;;;;;;10349117;28;20117;-76
2021/11/14 16:42:26;;;;;;;37.73;20.43;;;;;;;;;;10334492;28;20030;-76
2021/11/14 16:47:26;;;;;;;34.22;20.33;;;;;;;;;;10333932;28;20738;-75
2021/11/14 16:52:27;;;;;;;43.95;23.83;;;;;;;;;;10341836;28;20030;-76
2021/11/14 16:57:27;;;;;;;34.92;20.77;;;;;;;;;;10342636;28;20109;-76
2021/11/14 17:02:27;;;;;;;32.35;21.05;;;;;;;;;;10341398;28;20030;-76
2021/11/14 17:07:28;;;;;;;42.78;26.77;;;;;;;;;;10341477;28;20030;-75
2021/11/14 17:12:28;;;;;;;39.03;21.65;;;;;;;;;;10341753;28;20106;-75
2021/11/14 17:17:29;;;;;;;37.22;21.33;;;;;;;;;;10340973;28;20468;-76
2021/11/14 17:22:29;;;;;;;44.67;24.07;;;;;;;;;;10340866;28;20061;-75
2021/11/14 17:27:29;;;;;;;32.92;22.13;;;;;;;;;;10339599;28;20299;-75
2021/11/14 17:32:29;;;;;;;42.92;21.27;;;;;;;;;;10340629;28;20388;-75
2021/11/14 17:37:30;;;;;;;30.33;19.77;;;;;;;;;;10340487;28;20121;-75
2021/11/14 17:42:30;;;;;;;32.50;21.48;;;;;;;;;;10340154;28;20476;-76
2021/11/14 17:47:30;;;;;;;34.50;23.33;;;;;;;;;;10340651;28;20519;-75
2021/11/14 17:52:30;;;;;;;26.40;19.10;;;;;;;;;;10339285;28;20265;-75
2021/11/14 17:57:32;;;;;;;35.40;21.50;;;;;;;;;;10340326;28;20304;-75
2021/11/14 18:02:32;;;;;;;28.52;20.33;;;;;;;;;;10355460;28;20030;-75
2021/11/14 18:07:32;;;;;;;24.48;19.60;;;;;;;;;;10339116;28;20026;-75
2021/11/14 18:12:32;;;;;;;24.98;17.52;;;;;;;;;;10339483;28;20113;-75
2021/11/14 18:17:32;;;;;;;28.63;17.10;;;;;;;;;;10339712;28;20041;-75
2021/11/14 18:22:33;;;;;;;21.92;17.45;;;;;;;;;;10339709;28;20054;-75
2021/11/14 18:27:33;;;;;;;24.10;17.70;;;;;;;;;;10341699;28;20034;-75
2021/11/14 18:32:34;;;;;;;24.10;17.50;;;;;;;;;;10338844;28;20031;-75
2021/11/14 18:37:34;;;;;;;21.90;15.57;;;;;;;;;;10338011;28;20030;-75
2021/11/14 18:42:34;;;;;;;27.10;18.80;;;;;;;;;;10337754;28;20370;-75
2021/11/14 18:47:34;;;;;;;25.85;16.70;;;;;;;;;;10336768;28;20068;-75
2021/11/14 18:52:35;;;;;;;21.75;17.25;;;;;;;;;;10337393;28;20068;-75
2021/11/14 18:57:35;;;;;;;28.77;20.50;;;;;;;;;;10336770;28;20030;-75
2021/11/14 19:02:35;;;;;;;32.38;19.70;;;;;;;;;;10335756;28;20448;-75
2021/11/14 19:07:35;;;;;;;33.50;21.83;;;;;;;;;;10336742;28;20076;-75
2021/11/14 19:12:36;;;;;;;34.83;20.60;;;;;;;;;;10335978;28;20267;-76
2021/11/14 19:17:36;;;;;;;31.35;21.13;;;;;;;;;;10335494;28;20119;-75
2021/11/14 19:22:36;;;;;;;28.45;19.63;;;;;;;;;;10335838;28;20050;-75
2021/11/14 19:27:37;;;;;;;31.13;21.08;;;;;;;;;;10335600;28;20494;-75
2021/11/14 19:32:37;;;;;;;31.55;20.70;;;;;;;;;;10350165;28;20023;-75
2021/11/14 19:37:37;;;;;;;32.20;21.13;;;;;;;;;;10335456;28;20121;-75
2021/11/14 19:42:38;;;;;;;27.88;18.45;;;;;;;;;;10334648;28;20440;-75
2021/11/14 19:47:38;;;;;;;28.02;17.95;;;;;;;;;;10350740;28;20038;-75
2021/11/14 19:52:38;;;;;;;32.10;20.33;;;;;;;;;;10350522;28;20019;-75
2021/11/14 19:57:38;;;;;;;28.25;19.35;;;;;;;;;;10335833;28;20649;-75
2021/11/14 20:02:38;;;;;;;35.85;18.98;;;;;;;;;;10334854;28;20033;-75
2021/11/14 20:07:42;;;;;;;29.88;17.80;;;;;;;;;;10334828;28;20137;-75
2021/11/14 20:12:42;;;;;;;22.73;16.67;;;;;;;;;;10334261;28;20026;-75
2021/11/14 20:17:43;;;;;;;26.03;19.47;;;;;;;;;;10334195;28;20065;-75
2021/11/14 20:22:43;;;;;;;32.38;20.88;;;;;;;;;;10333220;28;20295;-75
2021/11/14 20:27:44;;;;;;;24.65;17.08;;;;;;;;;;10335425;28;20326;-75
2021/11/14 20:32:44;;;;;;;32.45;21.20;;;;;;;;;;10334055;28;20387;-75
2021/11/14 20:37:44;;;;;;;30.67;19.20;;;;;;;;;;10334787;28;20531;-74
2021/11/14 20:42:45;;;;;;;32.33;21.65;;;;;;;;;;10333799;28;20031;-75
2021/11/14 20:47:45;;;;;;;31.05;20.33;;;;;;;;;;10334600;28;20101;-75
2021/11/14 20:52:46;;;;;;;31.77;19.90;;;;;;;;;;10333613;28;20023;-75
2021/11/14 20:57:46;;;;;;;20.40;16.58;;;;;;;;;;10333305;28;20034;-75
2021/11/14 21:02:46;;;;;;;27.95;19.23;;;;;;;;;;10333271;28;20065;-74
2021/11/14 21:07:46;;;;;;;32.63;20.40;;;;;;;;;;10333283;28;20044;-75
2021/11/14 21:12:47;;;;;;;28.55;19.85;;;;;;;;;;10333526;28;20061;-75
2021/11/14 21:17:49;;;;;;;29.70;18.70;;;;;;;;;;10349521;28;20026;-75
2021/11/14 21:22:49;;;;;;;30.08;18.98;;;;;;;;;;10332610;28;20484;-75
2021/11/14 21:27:50;;;;;;;28.13;18.27;;;;;;;;;;10333269;28;20114;-75
2021/11/14 21:32:54;;;;;;;27.73;21.13;;;;;;;;;;10349403;28;20260;-75
2021/11/14 21:38:10;;;;;;;23.38;18.50;;;;;;;;;;10353485;28;20170;-75
2021/11/14 21:43:11;;;;;;;29.20;20.73;;;;;;;;;;10340882;28;20117;-75
2021/11/14 21:48:12;;;;;;;28.85;17.95;;;;;;;;;;10340234;28;20218;-75
2021/11/14 21:53:12;;;;;;;32.58;18.40;;;;;;;;;;10339969;28;20030;-75
2021/11/14 21:58:13;;;;;;;24.50;17.30;;;;;;;;;;10340904;28;20026;-75
2021/11/14 22:03:13;;;;;;;37.55;20.38;;;;;;;;;;10339216;28;20276;-75
2021/11/14 22:08:13;;;;;;;33.10;19.60;;;;;;;;;;10340305;28;20096;-75
2021/11/14 22:13:13;;;;;;;19.90;14.45;;;;;;;;;;10339009;28;20101;-75
2021/11/14 22:18:13;;;;;;;25.77;16.52;;;;;;;;;;10339171;28;20112;-75
2021/11/14 22:23:15;;;;;;;24.20;15.05;;;;;;;;;;10338870;28;20113;-74
2021/11/14 22:28:16;;;;;;;28.02;21.13;;;;;;;;;;10339987;28;20026;-74
2021/11/14 22:33:16;;;;;;;25.05;19.58;;;;;;;;;;10337943;28;20105;-73
2021/11/14 22:38:16;;;;;;;27.30;19.73;;;;;;;;;;10338085;28;20023;-74
2021/11/14 22:43:16;;;;;;;30.13;19.80;;;;;;;;;;10337197;28;20038;-74
2021/11/14 22:48:16;;;;;;;29.08;19.48;;;;;;;;;;10337618;28;20038;-74
2021/11/14 22:53:17;;;;;;;31.10;19.60;;;;;;;;;;10337887;28;20392;-74
2021/11/14 22:58:17;;;;;;;30.90;17.83;;;;;;;;;;10338642;28;20110;-74
2021/11/14 23:03:17;;;;;;;26.48;17.50;;;;;;;;;;10337293;28;20546;-74
2021/11/14 23:08:17;;;;;;;31.35;18.17;;;;;;;;;;10337648;28;20088;-74
2021/11/14 23:13:19;;;;;;;24.23;18.33;;;;;;;;;;10336861;28;20054;-74
2021/11/14 23:18:19;;;;;;;21.60;17.27;;;;;;;;;;10336171;28;20030;-74
2021/11/14 23:23:19;;;;;;;23.75;15.98;;;;;;;;;;10336618;28;20055;-75
2021/11/14 23:28:20;;;;;;;32.08;18.17;;;;;;;;;;10336843;28;20026;-74
2021/11/14 23:33:20;;;;;;;17.90;14.45;;;;;;;;;;10337286;28;20171;-74
2021/11/14 23:38:21;;;;;;;22.45;16.20;;;;;;;;;;10336032;28;20037;-74
2021/11/14 23:43:24;;;;;;;27.02;15.98;;;;;;;;;;10336247;28;20026;-74
2021/11/14 23:48:24;;;;;;;26.45;16.05;;;;;;;;;;10335630;28;20045;-74
2021/11/14 23:53:25;;;;;;;40.78;18.88;;;;;;;;;;10334631;28;20030;-74
2021/11/14 23:58:25;;;;;;;21.73;16.42;;;;;;;;;;10334567;28;20106;-74
